Latest Weather Observations for Forrest

IDW60801

Issued at 3:03 pm WST Tuesday 26 September 2017 (issued every 30 minutes, with the page automatically refreshed every 10 minutes)

About weather observations | Map of weather stations | Latest weather observations for WA | Other Formats
Station Details ID: 011052 Name: FORREST Lat: -30.85 Lon: 128.11 Height: 159.0 m
Data from the previous 72 hours. | See also: Recent months at Forrest
Date/Time
WST
Temp
°C
App
Temp
°C
Dew
Point
°C
Rel
Hum
%
Delta-T
°C
Wind Press
QNH
hPa
Press
MSL
hPa
Rain since
9am
mm
Dir  Spd
km/h
Gust
km/h
Spd
kts
Gust
kts
26/03:00pm 25.0 15.9 1.8 22 11.2 WNW 39 59 21 32 1005.2 1005.0 0.0
26/02:32pm 25.7 16.3 2.4 22 11.4 WNW 41 63 22 34 1004.9 - 0.0
26/02:30pm 25.3 15.9 2.1 22 11.2 WNW 41 57 22 31 1005.2 - 0.0
26/02:14pm 25.6 16.9 2.3 22 11.3 NW 37 57 20 31 1005.0 - 0.0
26/02:00pm 25.0 15.2 2.4 23 11.0 NW 43 57 23 31 1005.3 - 0.0
26/01:36pm 25.0 15.6 2.4 23 11.0 NW 41 59 22 32 1005.3 - 0.0
26/01:30pm 25.9 16.0 2.6 22 11.4 NW 44 56 24 30 1005.4 - 0.0
26/01:04pm 25.1 15.6 1.9 22 11.1 WNW 41 61 22 33 1005.5 - 0.0
26/01:00pm 26.8 18.1 4.0 23 11.5 WNW 39 52 21 28 1005.6 - 0.0
26/12:38pm 25.9 16.4 3.8 24 11.1 NW 43 61 23 33 1005.8 - 0.0
26/12:30pm 24.7 14.4 2.8 24 10.7 WNW 46 63 25 34 1005.9 - 0.0
26/12:00pm 24.7 15.8 2.8 24 10.7 NW 39 59 21 32 1006.4 1006.3 0.0
26/11:41am 25.4 16.6 3.4 24 10.9 WNW 39 57 21 31 1006.6 - 0.0
26/11:30am 24.1 14.3 2.3 24 10.5 NW 43 57 23 31 1006.6 - 0.0
26/11:03am 25.2 18.1 3.8 25 10.7 WNW 30 50 16 27 1007.0 - 0.0
26/11:00am 24.6 17.9 3.8 26 10.3 WNW 28 52 15 28 1007.1 - 0.0
26/10:30am 24.3 17.3 4.1 27 10.1 NNW 30 48 16 26 1007.5 - 0.0
26/10:17am 23.3 16.6 3.8 28 9.6 NNW 28 50 15 27 1007.7 - 0.0
26/10:00am 22.8 17.0 4.3 30 9.1 NW 24 41 13 22 1007.8 - 0.0
26/09:30am 22.6 16.5 4.6 31 8.9 WNW 26 33 14 18 1008.1 - 0.0
26/09:00am 21.9 17.0 4.9 33 8.5 NW 20 32 11 17 1008.3 1008.2 0.0
26/08:30am 21.2 17.3 7.1 40 7.3 WNW 17 24 9 13 1008.4 - 0.0
26/08:00am 19.7 17.1 7.8 46 6.2 NW 11 19 6 10 1008.4 - 0.0
26/07:30am 17.9 15.9 8.7 55 4.8 NNW 9 11 5 6 1008.3 - 0.0
26/07:00am 16.0 14.1 9.2 64 3.5 NNW 9 11 5 6 1008.2 - 0.0
26/06:30am 14.7 13.8 9.3 70 2.8 NNW 4 7 2 4 1007.6 - 0.0
26/06:00am 13.0 10.9 8.3 73 2.4 NNW 9 11 5 6 1007.7 1007.6 0.0
26/05:30am 12.1 10.2 7.6 74 2.2 SSW 7 9 4 5 1007.3 - 0.0
26/05:00am 11.6 10.9 7.1 74 2.2 CALM 0 0 0 0 1007.0 - 0.0
26/04:30am 12.4 10.7 8.5 77 2.0 SSW 7 7 4 4 1006.6 - 0.0
26/04:00am 12.4 11.2 8.1 75 2.1 SSW 4 9 2 5 1006.5 - 0.0
26/03:30am 12.4 10.8 7.9 74 2.2 SSW 6 7 3 4 1006.5 - 0.0
26/03:00am 12.8 10.8 8.5 75 2.2 SSW 9 11 5 6 1006.4 1006.3 0.0
26/02:30am 13.0 10.2 8.7 75 2.2 SW 13 15 7 8 1006.7 - 0.0
26/02:00am 13.3 9.8 8.8 74 2.3 SW 17 19 9 10 1006.8 - 0.0
26/01:30am 13.4 9.0 8.9 74 2.3 WSW 22 28 12 15 1006.9 - 0.0
26/01:00am 13.4 9.5 8.5 72 2.5 SW 19 24 10 13 1007.1 - 0.0
26/12:30am 13.3 9.4 7.3 67 2.9 SW 17 19 9 10 1007.2 - 0.0
26/12:00am 13.9 10.4 7.2 64 3.3 WSW 15 19 8 10 1006.9 1006.8 0.0
 
Date/Time
WST
Temp
°C
App
Temp
°C
Dew
Point
°C
Rel
Hum
%
Delta-T
°C
Wind Press
QNH
hPa
Press
MSL
hPa
Rain since
9am
mm
Dir  Spd
km/h
Gust
km/h
Spd
kts
Gust
kts
25/11:30pm 13.3 10.5 6.9 65 3.1 WSW 11 17 6 9 1006.6 - 0.0
25/11:00pm 14.2 12.3 7.5 64 3.3 ESE 7 11 4 6 1006.1 - 0.0
25/10:30pm 15.0 11.6 7.5 61 3.7 ESE 15 19 8 10 1005.9 - 0.0
25/10:00pm 15.6 12.1 7.1 57 4.2 ESE 15 19 8 10 1005.8 - 0.0
25/09:30pm 16.0 13.0 6.2 52 4.8 SE 11 13 6 7 1006.1 - 0.0
25/09:00pm 17.3 14.0 6.5 49 5.4 SSE 13 17 7 9 1006.2 1006.1 0.0
25/08:30pm 18.4 14.7 6.3 45 6.0 SSE 15 20 8 11 1005.9 - 0.0
25/08:00pm 19.6 14.4 0.1 27 8.7 W 17 19 9 10 1005.6 - 0.0
25/07:30pm 20.2 14.6 0.1 26 9.0 W 19 20 10 11 1005.4 - 0.0
25/07:00pm 21.3 15.8 0.5 25 9.5 W 19 20 10 11 1005.0 - 0.0
25/06:30pm 21.9 17.1 0.4 24 9.8 W 15 19 8 10 1004.7 - 0.0
25/06:00pm 23.0 17.9 0.8 23 10.3 WNW 17 19 9 10 1004.4 1004.3 0.0
25/05:30pm 24.6 19.9 0.8 21 11.2 WNW 15 19 8 10 1004.1 - 0.0
25/05:00pm 26.2 19.8 0.8 19 12.1 WNW 24 32 13 17 1003.7 - 0.0
25/04:30pm 27.4 19.2 0.2 17 12.9 NW 33 43 18 23 1003.4 - 0.0
25/04:00pm 28.3 20.4 0.9 17 13.2 NW 32 44 17 24 1003.3 - 0.0
25/03:30pm 28.5 20.0 1.1 17 13.3 NNW 35 54 19 29 1003.1 - 0.0
25/03:26pm 28.7 21.6 1.3 17 13.4 NNW 28 50 15 27 1002.9 - 0.0
25/03:00pm 28.1 20.3 1.6 18 13.0 NW 32 44 17 24 1003.1 1003.0 0.0
25/02:30pm 28.3 20.4 0.9 17 13.2 NNW 32 54 17 29 1003.1 - 0.0
25/02:24pm 29.3 22.3 1.7 17 13.6 NNW 28 54 15 29 1003.0 - 0.0
25/02:00pm 27.8 20.4 2.1 19 12.6 NNW 30 41 16 22 1003.4 - 0.0
25/01:30pm 27.5 21.9 1.1 18 12.7 N 20 35 11 19 1003.6 - 0.0
25/01:00pm 28.5 22.8 2.7 19 12.9 N 22 37 12 20 1004.0 - 0.0
25/12:52pm 28.1 20.4 2.3 19 12.7 N 32 50 17 27 1004.4 - 0.0
25/12:30pm 26.9 20.0 2.7 21 11.9 NE 28 39 15 21 1004.9 - 0.0
25/12:00pm 26.7 19.8 2.6 21 11.9 NNE 28 41 15 22 1005.5 1005.3 0.0
25/11:30am 25.9 17.8 3.2 23 11.2 ENE 35 50 19 27 1006.1 - 0.0
25/11:03am 25.6 17.1 2.9 23 11.1 NE 37 56 20 30 1006.7 - 0.0
25/11:00am 24.7 16.1 2.8 24 10.7 NE 37 52 20 28 1007.0 - 0.0
25/10:30am 24.1 16.4 3.4 26 10.2 ENE 33 44 18 24 1007.7 - 0.0
25/10:22am 23.3 15.2 3.3 27 9.7 ENE 35 46 19 25 1007.9 - 0.0
25/10:20am 23.9 15.4 3.2 26 10.1 NNE 37 46 20 25 1007.9 - 0.0
25/10:00am 22.0 14.8 3.2 29 9.1 ENE 30 37 16 20 1008.5 - 0.0
25/09:39am 21.6 14.2 3.8 31 8.6 ENE 32 50 17 27 1008.8 - 0.0
25/09:30am 21.5 13.5 3.7 31 8.6 ENE 35 46 19 25 1008.9 - 0.0
25/09:00am 19.7 12.1 3.8 35 7.6 E 33 46 18 25 1009.3 1009.2 0.0
25/08:30am 18.3 10.4 4.5 40 6.6 E 35 43 19 23 1009.8 - 0.0
25/08:00am 17.0 9.2 5.0 45 5.8 E 35 44 19 24 1009.7 - 0.0
25/07:30am 15.2 8.0 6.0 54 4.5 E 33 41 18 22 1010.0 - 0.0
25/07:00am 14.4 7.7 7.2 62 3.6 E 32 39 17 21 1010.2 - 0.0
25/06:30am 12.8 7.3 7.7 71 2.5 E 26 32 14 17 1010.3 - 0.0
25/06:00am 11.6 7.4 8.1 79 1.7 E 20 26 11 14 1010.1 1010.0 0.0
25/05:30am 10.8 7.1 8.0 83 1.4 E 17 24 9 13 1010.3 - 0.0
25/05:00am 10.7 4.9 8.1 84 1.3 ENE 28 33 15 18 1009.5 - 0.0
25/04:30am 10.8 6.6 8.4 85 1.2 E 20 26 11 14 1009.7 - 0.0
25/04:00am 11.1 7.0 8.7 85 1.2 ENE 20 26 11 14 1009.6 - 0.0
25/03:30am 11.4 7.9 8.8 84 1.3 E 17 20 9 11 1009.8 - 0.0
25/03:00am 11.3 7.7 8.5 83 1.4 E 17 22 9 12 1009.6 1009.5 0.0
25/02:30am 11.2 8.4 8.4 83 1.4 ESE 13 17 7 9 1010.0 - 0.0
25/02:00am 11.4 8.6 8.4 82 1.5 E 13 17 7 9 1010.1 - 0.0
25/01:30am 11.6 8.4 8.6 82 1.5 ESE 15 17 8 9 1010.2 - 0.0
25/01:00am 11.9 8.4 8.7 81 1.6 ESE 17 20 9 11 1010.1 - 0.0
25/12:30am 12.0 8.5 8.7 80 1.7 E 17 20 9 11 1010.0 - 0.0
25/12:00am 12.3 8.2 8.6 78 1.9 E 20 26 11 14 1009.9 1009.8 0.0
 
Date/Time
WST
Temp
°C
App
Temp
°C
Dew
Point
°C
Rel
Hum
%
Delta-T
°C
Wind Press
QNH
hPa
Press
MSL
hPa
Rain since
9am
mm
Dir  Spd
km/h
Gust
km/h
Spd
kts
Gust
kts
24/11:30pm 12.4 7.9 8.5 77 2.0 E 22 28 12 15 1009.7 - 0.0
24/11:00pm 12.5 8.0 8.4 76 2.0 E 22 30 12 16 1009.7 - 0.0
24/10:30pm 12.6 8.0 8.3 75 2.1 ESE 22 30 12 16 1009.8 - 0.0
24/10:00pm 12.8 7.8 8.1 73 2.3 ESE 24 32 13 17 1009.8 - 0.0
24/09:30pm 12.9 7.1 8.0 72 2.4 ESE 28 33 15 18 1009.7 - 0.0
24/09:00pm 13.1 7.3 7.8 70 2.6 SE 28 35 15 19 1009.8 1009.7 0.0
24/08:30pm 13.5 6.8 7.3 66 3.0 SE 32 37 17 20 1009.6 - 0.0
24/08:00pm 14.0 7.1 7.1 63 3.4 SE 33 44 18 24 1009.4 - 0.0
24/07:30pm 14.7 6.9 6.8 59 3.9 SE 37 48 20 26 1009.0 - 0.0
24/07:00pm 15.7 7.8 6.4 54 4.6 SE 37 46 20 25 1008.7 - 0.0
24/06:30pm 17.5 9.4 5.4 45 5.9 SE 37 52 20 28 1008.1 - 0.0
24/06:18pm 18.4 10.5 4.2 39 6.8 SSE 35 44 19 24 1007.9 - 0.0
24/06:00pm 20.6 16.6 0.4 26 9.1 S 11 13 6 7 1007.9 1007.8 0.0
24/05:30pm 21.2 19.3 0.4 25 9.4 CALM 0 0 0 0 1007.7 - 0.0
24/05:00pm 21.9 18.3 0.4 24 9.8 WNW 9 17 5 9 1007.7 - 0.0
24/04:30pm 22.3 19.1 0.8 24 9.9 N 7 13 4 7 1007.7 - 0.0
24/04:00pm 23.1 19.5 0.9 23 10.3 NW 9 15 5 8 1007.5 - 0.0
24/03:30pm 23.2 19.6 0.9 23 10.4 WNW 9 17 5 9 1007.5 - 0.0
24/03:00pm 22.1 17.7 0.6 24 9.9 NW 13 22 7 12 1007.7 1007.6 0.0
24/02:30pm 23.6 17.5 0.7 22 10.6 W 22 32 12 17 1007.7 - 0.0
24/02:00pm 23.4 18.5 1.7 24 10.3 NW 17 33 9 18 1007.9 - 0.0
24/01:30pm 22.1 17.1 1.2 25 9.7 NW 17 26 9 14 1008.6 - 0.0
24/01:00pm 22.1 17.5 1.7 26 9.6 N 15 30 8 16 1008.7 - 0.0
24/12:30pm 21.0 17.1 1.3 27 9.1 NNW 11 22 6 12 1009.2 - 0.0
24/12:00pm 20.2 16.4 1.6 29 8.6 W 11 24 6 13 1009.6 1009.5 0.0
24/11:30am 20.6 16.1 2.0 29 8.7 NNW 15 26 8 14 1010.0 - 0.0
24/11:00am 19.7 16.0 2.1 31 8.2 N 11 19 6 10 1010.5 - 0.0
24/10:30am 18.9 14.9 3.1 35 7.4 N 13 26 7 14 1010.8 - 0.0
24/10:00am 18.7 14.8 3.3 36 7.3 NNE 13 19 7 10 1011.3 - 0.0
24/09:30am 17.5 14.6 4.5 42 6.2 NNE 9 17 5 9 1011.6 - 0.0
24/09:00am 16.2 13.1 5.5 49 5.2 NE 11 17 6 9 1011.8 1011.7 0.0
24/08:30am 15.0 11.9 7.1 59 3.9 NE 13 17 7 9 1011.9 - 0.0
24/08:00am 14.5 11.1 7.8 64 3.4 N 15 19 8 10 1012.2 - 0.0
24/07:30am 13.7 10.3 7.5 66 3.1 N 15 19 8 10 1012.2 - 0.0
24/07:00am 12.7 9.2 7.0 68 2.8 N 15 17 8 9 1012.1 - 0.0
24/06:30am 10.5 7.3 5.3 70 2.4 N 11 15 6 8 1011.6 - 0.0
24/06:00am 7.8 4.2 3.1 72 2.0 N 11 13 6 7 1011.4 1011.4 0.0
24/05:30am 5.9 1.6 1.2 72 1.9 N 13 15 7 8 1011.2 - 0.0
24/05:00am 6.3 1.3 1.4 71 2.0 NNW 17 17 9 9 1011.2 - 0.0
24/04:30am 6.5 1.9 1.8 72 1.9 NNW 15 17 8 9 1011.0 - 0.0
24/04:00am 6.4 2.6 1.5 71 2.0 NNW 11 13 6 7 1010.8 - 0.0
24/03:30am 6.4 2.6 1.5 71 2.0 NNW 11 11 6 6 1010.7 - 0.0
24/03:00am 5.9 2.3 0.7 69 2.1 SSE 9 15 5 8 1010.6 1010.5 0.0
24/02:30am 7.2 5.5 2.1 70 2.1 CALM 0 0 0 0 1010.4 - 0.0
24/02:00am 7.5 5.9 2.2 69 2.2 CALM 0 0 0 0 1010.8 - 0.0
24/01:30am 7.4 5.7 1.7 67 2.3 CALM 0 0 0 0 1010.9 - 0.0
24/01:00am 7.4 5.6 1.3 65 2.5 CALM 0 0 0 0 1010.9 - 0.0
24/12:30am 7.5 5.2 0.7 62 2.7 SSE 2 6 1 3 1011.1 - 0.0
24/12:00am 9.2 6.4 3.2 66 2.6 SSE 7 7 4 4 1011.2 1011.2 0.0
 
Date/Time
WST
Temp
°C
App
Temp
°C
Dew
Point
°C
Rel
Hum
%
Delta-T
°C
Wind Press
QNH
hPa
Press
MSL
hPa
Rain since
9am
mm
Dir  Spd
km/h
Gust
km/h
Spd
kts
Gust
kts
23/11:30pm 10.0 7.1 2.8 61 3.1 SSE 7 9 4 5 1011.1 - 0.0
23/11:00pm 10.8 7.8 4.0 63 3.0 SSE 9 9 5 5 1011.2 - 0.0
23/10:30pm 11.0 7.9 3.8 61 3.2 SSE 9 11 5 6 1011.1 - 0.0
23/10:00pm 10.9 7.8 3.5 60 3.3 SSE 9 9 5 5 1011.3 - 0.0
23/09:30pm 12.2 8.8 3.9 57 3.8 S 11 13 6 7 1011.3 - 0.0
23/09:00pm 13.1 9.3 4.0 54 4.2 S 13 17 7 9 1011.2 1011.2 0.0
23/08:30pm 14.4 9.6 4.4 51 4.7 S 19 24 10 13 1011.2 - 0.0
23/08:00pm 15.3 9.9 4.7 49 5.0 S 22 30 12 16 1010.8 - 0.0
23/07:42pm 16.6 8.1 0.7 34 7.0 SSW 35 43 19 23 1010.5 - 0.0
23/07:30pm 17.0 11.6 -1.6 28 7.8 WSW 17 19 9 10 1010.0 - 0.0
23/07:00pm 18.2 12.5 -1.1 27 8.3 WSW 19 22 10 12 1009.7 - 0.0
23/06:30pm 19.1 12.4 -0.8 26 8.7 WSW 24 30 13 16 1009.2 - 0.0
23/06:00pm 19.9 13.3 -0.7 25 9.1 W 24 30 13 16 1008.8 1008.7 0.0
23/05:30pm 20.5 12.6 -1.3 23 9.5 W 30 37 16 20 1008.4 - 0.0
23/05:00pm 21.6 12.1 -1.0 22 10.0 W 39 52 21 28 1008.0 - 0.0
23/04:30pm 22.5 11.6 -0.9 21 10.5 W 46 57 25 31 1007.5 - 0.0
23/04:00pm 23.2 13.8 -0.3 21 10.7 W 39 52 21 28 1007.0 - 0.0
23/03:30pm 23.6 13.4 -0.6 20 11.0 W 43 56 23 30 1006.7 - 0.0
23/03:12pm 23.8 13.5 -1.2 19 11.2 W 43 63 23 34 1006.5 - 0.0

Other Formats:

Comma delimited format used in spreadsheet applications
http://www.bom.gov.au/fwo/IDW60801/IDW60801.95646.axf

JavaScript Object Notation format (JSON) in row-major order
http://www.bom.gov.au/fwo/IDW60801/IDW60801.95646.json